createdAt,value
2023-05-06T00:02:11.575Z,100073.41
2023-05-06T00:04:55.414Z,100105.31
2023-05-06T00:07:39.275Z,100105.13
2023-05-06T00:10:23.221Z,100098.09
2023-05-06T00:13:08.312Z,100103.41
2023-05-06T00:15:53.753Z,100101.34
2023-05-06T00:18:37.593Z,100103.41
2023-05-06T00:21:21.567Z,100095.38
2023-05-06T00:24:05.948Z,100097.75
2023-05-06T00:26:49.769Z,100088.94
2023-05-06T00:29:33.548Z,100093.56
2023-05-06T00:32:18.767Z,100090.19
2023-05-06T00:35:03.475Z,100089.22
2023-05-06T00:37:57.183Z,100089.88
2023-05-06T00:40:41.617Z,100086.38
2023-05-06T00:43:25.487Z,100086.19
2023-05-06T00:46:11.531Z,100077.66
2023-05-06T00:48:57.307Z,100085.25
2023-05-06T00:51:41.434Z,100074.06
2023-05-06T00:54:26.921Z,100078.63
2023-05-06T00:57:10.839Z,100080.34
2023-05-06T00:59:55.395Z,100074.50
2023-05-06T01:02:46.853Z,100065.78
2023-05-06T01:05:52.647Z,100074.19
2023-05-06T01:08:43.244Z,100067.28
2023-05-06T01:11:35.731Z,100055.56
2023-05-06T01:14:34.521Z,100056.31
2023-05-06T01:17:20.190Z,100052.91
2023-05-06T01:20:11.873Z,100051.41
2023-05-06T01:22:57.835Z,100044.22
2023-05-06T01:25:43.368Z,100045.72
2023-05-06T01:28:27.156Z,100034.19
2023-05-06T01:31:16.127Z,100036.75
2023-05-06T01:34:15.619Z,100030.31
2023-05-06T01:37:10.389Z,100031.72
2023-05-06T01:39:57.138Z,100040.22
2023-05-06T01:42:44.695Z,100032.56
2023-05-06T01:45:29.924Z,100023.75
2023-05-06T01:48:14.675Z,100034.34
2023-05-06T01:50:58.760Z,100026.50
2023-05-06T01:53:43.317Z,100028.91
2023-05-06T01:56:27.192Z,100031.63
2023-05-06T01:59:12.542Z,100013.75
2023-05-06T02:01:56.432Z,100031.91
2023-05-06T02:04:40.403Z,100044.00
2023-05-06T02:07:24.282Z,100046.94
2023-05-06T02:10:09.380Z,100029.81
2023-05-06T02:12:57.089Z,100030.91
2023-05-06T02:15:43.053Z,100025.78
2023-05-06T02:18:32.709Z,100028.53
2023-05-06T02:21:16.984Z,99987.16
2023-05-06T02:24:00.675Z,100040.03
2023-05-06T02:26:44.476Z,99993.88
2023-05-06T02:29:28.207Z,100045.81
2023-05-06T02:32:14.825Z,100039.72
2023-05-06T02:34:58.663Z,100042.16
2023-05-06T02:37:42.529Z,100038.25
2023-05-06T02:40:26.891Z,100048.31
2023-05-06T02:43:10.742Z,100046.28
2023-05-06T02:45:55.211Z,100015.72
2023-05-06T02:48:40.758Z,100047.50
2023-05-06T02:51:24.629Z,100046.63
2023-05-06T02:54:08.604Z,100046.56
2023-05-06T02:56:52.505Z,100057.16
2023-05-06T02:59:37.161Z,100047.00
2023-05-06T03:02:21.227Z,100077.28
2023-05-06T03:05:07.476Z,100065.59
2023-05-06T03:07:51.645Z,100055.69
2023-05-06T03:10:35.890Z,100061.47
2023-05-06T03:13:20.003Z,100063.72
2023-05-06T03:16:04.333Z,100033.38
2023-05-06T03:18:48.709Z,100066.09
2023-05-06T03:21:34.997Z,100076.00
2023-05-06T03:24:19.848Z,100077.00
2023-05-06T03:27:04.800Z,100070.69
2023-05-06T03:29:49.569Z,100061.56
2023-05-06T03:32:35.773Z,100073.06
2023-05-06T03:35:20.129Z,100072.31
2023-05-06T03:38:10.546Z,100065.41
2023-05-06T03:41:11.318Z,100080.56
2023-05-06T03:43:55.851Z,100071.38
2023-05-06T03:46:43.621Z,100061.34
2023-05-06T03:49:28.120Z,100095.34
2023-05-06T03:52:12.586Z,100092.94
2023-05-06T03:54:58.171Z,100097.41
2023-05-06T03:57:42.999Z,100092.03
2023-05-06T04:00:27.174Z,100072.00
2023-05-06T04:03:11.724Z,100088.56
2023-05-06T04:06:00.814Z,100089.16
2023-05-06T04:08:44.768Z,100091.31
2023-05-06T04:11:30.255Z,100108.47
2023-05-06T04:14:15.727Z,100098.13
2023-05-06T04:17:00.445Z,100096.94
2023-05-06T04:19:44.606Z,100100.91
2023-05-06T04:22:28.599Z,100107.69
2023-05-06T04:25:13.357Z,100106.38
2023-05-06T04:27:59.238Z,100115.69
2023-05-06T04:30:43.407Z,100132.38
2023-05-06T04:33:29.429Z,100119.44
2023-05-06T04:36:15.809Z,100129.44
2023-05-06T04:39:10.602Z,100123.47
2023-05-06T04:41:56.059Z,100133.34
2023-05-06T04:44:48.922Z,100132.09
2023-05-06T04:47:35.631Z,100132.13
2023-05-06T04:50:20.468Z,100145.66
2023-05-06T04:53:04.803Z,100155.41
2023-05-06T04:55:49.300Z,100151.38
2023-05-06T04:58:34.069Z,100139.25
2023-05-06T05:01:19.727Z,100145.44
2023-05-06T05:04:04.152Z,100144.72
2023-05-06T05:06:47.999Z,100142.06
2023-05-06T05:09:32.734Z,100127.59
2023-05-06T05:12:16.564Z,100104.00
2023-05-06T05:15:04.372Z,100148.94
2023-05-06T05:17:51.358Z,100144.38
2023-05-06T05:20:37.705Z,100147.88
2023-05-06T05:23:23.280Z,100147.66
2023-05-06T05:26:07.252Z,100152.25
2023-05-06T05:28:51.295Z,100158.63
2023-05-06T05:31:35.512Z,100150.97
2023-05-06T05:34:20.972Z,100162.41
2023-05-06T05:37:06.502Z,100138.09
2023-05-06T05:39:51.387Z,100059.56
2023-05-06T05:42:36.278Z,100166.03
2023-05-06T05:45:25.450Z,100175.03
2023-05-06T05:48:10.279Z,100162.72
2023-05-06T05:50:56.459Z,100173.97
2023-05-06T05:53:40.515Z,100174.78
2023-05-06T05:56:25.280Z,100170.19
2023-05-06T05:59:09.580Z,100172.59
2023-05-06T06:01:53.429Z,100163.38
2023-05-06T06:04:37.379Z,100176.63
2023-05-06T06:07:22.794Z,100163.16
2023-05-06T06:10:07.781Z,100165.59
2023-05-06T06:12:52.249Z,100165.06
2023-05-06T06:15:39.934Z,100167.91
2023-05-06T06:18:24.427Z,100158.53
2023-05-06T06:21:08.684Z,100159.56
2023-05-06T06:23:54.507Z,100155.09
2023-05-06T06:26:38.394Z,100160.25
2023-05-06T06:29:22.492Z,100159.16
2023-05-06T06:32:07.288Z,100163.25
2023-05-06T06:34:52.421Z,100173.88
2023-05-06T06:37:36.311Z,100169.94
2023-05-06T06:40:22.770Z,100164.06
2023-05-06T06:43:06.739Z,100165.44
2023-05-06T06:46:12.923Z,100173.84
2023-05-06T06:48:56.826Z,100175.41
2023-05-06T06:51:40.696Z,100178.63
2023-05-06T06:54:24.742Z,100182.13
2023-05-06T06:57:10.234Z,100168.72
2023-05-06T06:59:54.903Z,100182.19
2023-05-06T07:02:38.904Z,100183.97
2023-05-06T07:05:22.802Z,100175.28
2023-05-06T07:08:07.090Z,100174.72
2023-05-06T07:10:51.034Z,100162.91
2023-05-06T07:13:36.597Z,100179.06
2023-05-06T07:16:20.668Z,100190.50
2023-05-06T07:19:04.786Z,100188.06
2023-05-06T07:21:48.758Z,100188.69
2023-05-06T07:24:32.803Z,100189.13
2023-05-06T07:27:19.763Z,100192.63
2023-05-06T07:30:05.622Z,100191.56
2023-05-06T07:32:49.840Z,100187.03
2023-05-06T07:35:34.012Z,100197.81
2023-05-06T07:38:18.076Z,100207.13
2023-05-06T07:41:02.066Z,100213.66
2023-05-06T07:43:46.157Z,100217.78
2023-05-06T07:46:31.626Z,100204.31
2023-05-06T07:49:15.836Z,100187.41
2023-05-06T07:51:59.952Z,100187.97
2023-05-06T07:54:43.983Z,100212.75
2023-05-06T07:57:28.048Z,100216.22
2023-05-06T08:00:13.177Z,100213.94
2023-05-06T08:03:01.300Z,100221.25
2023-05-06T08:05:45.406Z,100214.13
2023-05-06T08:08:29.488Z,100199.03
2023-05-06T08:11:13.600Z,100230.38
2023-05-06T08:13:57.692Z,100229.78
2023-05-06T08:16:41.942Z,100221.72
2023-05-06T08:19:27.854Z,100245.75
2023-05-06T08:22:14.917Z,100229.66
2023-05-06T08:24:59.046Z,100236.16
2023-05-06T08:27:44.839Z,100223.88
2023-05-06T08:30:29.006Z,100232.63
2023-05-06T08:33:13.053Z,100238.41
2023-05-06T08:36:00.268Z,100196.91
2023-05-06T08:38:49.195Z,100238.81
2023-05-06T08:41:36.046Z,100225.56
2023-05-06T08:44:24.737Z,100241.81
2023-05-06T08:47:09.047Z,100235.72
2023-05-06T08:49:53.159Z,100246.84
2023-05-06T08:52:41.251Z,100222.72
2023-05-06T08:55:27.916Z,100239.94
2023-05-06T08:58:16.018Z,100244.38
2023-05-06T09:01:03.763Z,100248.50
2023-05-06T09:03:49.386Z,100229.03
2023-05-06T09:06:33.444Z,100247.16
2023-05-06T09:09:18.894Z,100242.13
2023-05-06T09:12:06.110Z,100244.88
2023-05-06T09:14:51.616Z,100231.97
2023-05-06T09:17:35.718Z,100213.09
2023-05-06T09:20:19.986Z,100241.63
2023-05-06T09:23:04.238Z,100232.47
2023-05-06T09:25:51.396Z,100232.56
2023-05-06T09:28:35.339Z,100217.06
2023-05-06T09:31:19.340Z,100234.78
2023-05-06T09:34:03.409Z,100226.91
2023-05-06T09:36:47.689Z,100222.47
2023-05-06T09:39:32.788Z,100190.00
2023-05-06T09:42:18.461Z,100240.72
2023-05-06T09:45:02.972Z,100231.50
2023-05-06T09:47:50.886Z,100217.03
2023-05-06T09:50:35.007Z,100228.03
2023-05-06T09:53:20.664Z,100222.25
2023-05-06T09:56:05.550Z,100218.66
2023-05-06T09:58:53.292Z,100210.25
2023-05-06T10:01:38.117Z,100218.97
2023-05-06T10:04:27.361Z,100237.50
2023-05-06T10:07:13.142Z,100229.47
2023-05-06T10:09:59.831Z,100184.53
2023-05-06T10:12:45.348Z,100213.69
2023-05-06T10:15:33.499Z,100176.28
2023-05-06T10:18:19.657Z,100187.34
2023-05-06T10:21:05.090Z,100209.66
2023-05-06T10:23:56.669Z,100192.94
2023-05-06T10:26:42.261Z,100194.94
2023-05-06T10:29:27.514Z,100186.75
2023-05-06T10:32:13.932Z,100206.28
2023-05-06T10:35:03.742Z,100196.16
2023-05-06T10:37:50.460Z,100172.19
2023-05-06T10:40:34.518Z,100198.91
2023-05-06T10:43:22.439Z,100211.75
2023-05-06T10:46:09.347Z,100198.94
2023-05-06T10:49:22.493Z,100192.28
2023-05-06T10:52:15.089Z,100191.69
2023-05-06T10:54:59.156Z,100204.59
2023-05-06T10:57:43.281Z,100206.34
2023-05-06T11:00:27.562Z,100220.75
2023-05-06T11:03:14.270Z,100214.44
2023-05-06T11:06:00.143Z,100216.63
2023-05-06T11:08:46.631Z,100209.38
2023-05-06T11:11:51.918Z,100208.31
2023-05-06T11:14:37.053Z,100182.94
2023-05-06T11:17:32.519Z,100209.19
2023-05-06T11:20:21.085Z,100216.06
2023-05-06T11:23:06.645Z,100208.19
2023-05-06T11:25:51.681Z,100207.91
2023-05-06T11:28:36.508Z,100207.00
2023-05-06T11:31:23.389Z,100211.53
2023-05-06T11:34:10.324Z,100209.53
2023-05-06T11:36:58.892Z,100219.06
2023-05-06T11:39:50.239Z,100212.09
2023-05-06T11:42:34.199Z,100215.09
2023-05-06T11:45:18.274Z,100231.88
2023-05-06T11:48:04.613Z,100239.78
2023-05-06T11:50:49.673Z,100242.28
2023-05-06T11:53:34.077Z,100215.53
2023-05-06T11:56:19.521Z,100218.59
2023-05-06T11:59:04.321Z,100229.03
2023-05-06T12:01:48.441Z,100209.38
2023-05-06T12:04:40.052Z,100222.50
2023-05-06T12:07:24.359Z,100207.22
2023-05-06T12:10:09.557Z,100214.69
2023-05-06T12:12:55.664Z,100191.63
2023-05-06T12:15:40.124Z,100227.44
2023-05-06T12:18:25.348Z,100225.75
2023-05-06T12:21:11.892Z,100198.78
2023-05-06T12:23:58.501Z,100238.50
2023-05-06T12:26:47.399Z,100250.13
2023-05-06T12:29:33.131Z,100250.41
2023-05-06T12:32:17.157Z,100209.13
2023-05-06T12:35:05.900Z,100218.19
2023-05-06T12:37:50.114Z,100224.03
2023-05-06T12:40:34.235Z,100215.78
2023-05-06T12:43:18.185Z,100201.28
2023-05-06T12:46:10.096Z,100198.63
2023-05-06T12:48:58.916Z,100201.78
2023-05-06T12:51:42.921Z,100216.59
2023-05-06T12:54:35.968Z,100229.72
2023-05-06T12:57:20.668Z,100208.28
2023-05-06T13:00:07.695Z,100213.38
2023-05-06T13:02:53.384Z,100205.16
2023-05-06T13:05:37.513Z,100219.13
2023-05-06T13:08:21.656Z,100208.16
2023-05-06T13:11:05.650Z,100218.66
2023-05-06T13:13:49.655Z,100231.94
2023-05-06T13:16:34.015Z,100212.41
2023-05-06T13:19:31.480Z,100168.19
2023-05-06T13:22:16.977Z,100228.97
2023-05-06T13:25:04.336Z,100206.47
2023-05-06T13:27:48.869Z,100210.78
2023-05-06T13:30:36.163Z,100203.44
2023-05-06T13:33:20.306Z,100187.19
2023-05-06T13:36:06.985Z,100201.28
2023-05-06T13:38:53.770Z,100204.72
2023-05-06T13:41:38.012Z,100220.28
2023-05-06T13:44:23.031Z,100209.66
2023-05-06T13:47:07.740Z,100210.25
2023-05-06T13:49:51.933Z,100186.50
2023-05-06T13:52:37.658Z,100202.31
2023-05-06T13:55:21.831Z,100201.84
2023-05-06T13:58:07.641Z,100209.53
2023-05-06T14:00:51.794Z,100212.72
2023-05-06T14:03:36.045Z,100192.00
2023-05-06T14:06:22.711Z,100209.94
2023-05-06T14:09:08.673Z,100216.50
2023-05-06T14:11:53.049Z,100201.66
2023-05-06T14:14:37.386Z,100222.91
2023-05-06T14:17:23.426Z,100188.41
2023-05-06T14:20:09.257Z,100202.59
2023-05-06T14:22:53.663Z,100199.81
2023-05-06T14:25:42.507Z,100203.59
2023-05-06T14:28:26.762Z,100203.22
2023-05-06T14:31:10.775Z,100231.63
2023-05-06T14:33:54.831Z,100236.94
2023-05-06T14:36:39.182Z,100230.56
2023-05-06T14:39:23.212Z,100236.63
2023-05-06T14:42:08.672Z,100237.59
2023-05-06T14:44:52.835Z,100233.22
2023-05-06T14:47:40.103Z,100239.38
2023-05-06T14:50:24.536Z,100246.91
2023-05-06T14:53:11.115Z,100247.56
2023-05-06T14:55:58.956Z,100221.00
2023-05-06T14:58:46.268Z,100246.13
2023-05-06T15:01:30.782Z,100250.25
2023-05-06T15:04:14.972Z,100245.16
2023-05-06T15:06:59.125Z,100256.88
2023-05-06T15:09:44.318Z,100248.97
2023-05-06T15:12:28.474Z,100276.38
2023-05-06T15:15:14.962Z,100254.38
2023-05-06T15:18:00.625Z,100255.91
2023-05-06T15:20:44.860Z,100255.78
2023-05-06T15:23:31.262Z,100251.25
2023-05-06T15:26:15.357Z,100267.00
2023-05-06T15:28:59.406Z,100249.41
2023-05-06T15:31:47.058Z,100245.81
2023-05-06T15:34:31.223Z,100254.69
2023-05-06T15:37:19.198Z,100250.72
2023-05-06T15:40:07.275Z,100260.50
2023-05-06T15:42:51.287Z,100261.69
2023-05-06T15:45:44.421Z,100248.50
2023-05-06T15:48:29.925Z,100260.56
2023-05-06T15:51:16.297Z,100270.88
2023-05-06T15:54:00.457Z,100255.47
2023-05-06T15:56:44.641Z,100275.19
2023-05-06T15:59:28.982Z,100251.28
2023-05-06T16:05:04.347Z,100245.56
2023-05-06T16:07:48.545Z,100258.06
2023-05-06T16:10:32.676Z,100267.44
2023-05-06T16:13:16.899Z,100272.53
2023-05-06T16:16:05.798Z,100258.59
2023-05-06T16:18:52.861Z,100260.41
2023-05-06T16:21:38.436Z,100269.16
2023-05-06T16:24:23.024Z,100266.00
2023-05-06T16:27:07.413Z,100271.41
2023-05-06T16:29:53.141Z,100277.81
2023-05-06T16:32:39.176Z,100280.63
2023-05-06T16:35:25.859Z,100285.72
2023-05-06T16:38:11.454Z,100281.34
2023-05-06T16:40:55.614Z,100283.75
2023-05-06T16:43:42.941Z,100297.66
2023-05-06T16:46:32.936Z,100301.69
2023-05-06T16:49:16.941Z,100301.13
2023-05-06T16:52:02.830Z,100288.53
2023-05-06T16:54:48.510Z,100307.09
2023-05-06T16:57:35.055Z,100315.25
2023-05-06T17:00:20.159Z,100316.13
2023-05-06T17:03:04.478Z,100311.91
2023-05-06T17:05:51.125Z,100322.59
2023-05-06T17:08:37.423Z,100324.53
2023-05-06T17:11:22.935Z,100320.97
2023-05-06T17:14:08.013Z,100320.63
2023-05-06T17:16:52.519Z,100324.13
2023-05-06T17:19:45.380Z,100318.41
2023-05-06T17:22:29.540Z,100331.19
2023-05-06T17:25:13.808Z,100293.19
2023-05-06T17:28:01.942Z,100332.25
2023-05-06T17:30:46.147Z,100341.41
2023-05-06T17:33:40.227Z,100350.81
2023-05-06T17:36:24.466Z,100324.09
2023-05-06T17:39:17.187Z,100358.47
2023-05-06T17:42:01.952Z,100357.00
2023-05-06T17:44:50.098Z,100355.81
2023-05-06T17:47:39.858Z,100352.41
2023-05-06T17:50:26.352Z,100366.34
2023-05-06T17:53:10.503Z,100365.72
2023-05-06T17:55:54.721Z,100370.63
2023-05-06T17:58:38.804Z,100365.72
2023-05-06T18:01:24.226Z,100365.06
2023-05-06T18:04:10.687Z,100362.72
2023-05-06T18:06:54.744Z,100365.59
2023-05-06T18:09:38.888Z,100354.00
2023-05-06T18:12:24.160Z,100366.84
2023-05-06T18:15:09.741Z,100367.91
2023-05-06T18:17:55.943Z,100381.53
2023-05-06T18:20:40.217Z,100379.28
2023-05-06T18:23:24.322Z,100377.50
2023-05-06T18:26:11.247Z,100381.22
2023-05-06T18:28:58.075Z,100381.00
2023-05-06T18:31:42.293Z,100378.66
2023-05-06T18:34:27.875Z,100372.03
2023-05-06T18:37:11.922Z,100385.41
2023-05-06T18:39:56.081Z,100374.91
2023-05-06T18:42:40.158Z,100382.75
2023-05-06T18:45:26.093Z,100377.00
2023-05-06T18:48:11.236Z,100332.50
2023-05-06T18:50:56.710Z,100374.28
2023-05-06T18:53:40.898Z,100381.59
2023-05-06T18:56:28.359Z,100372.81
2023-05-06T18:59:17.434Z,100353.28
2023-05-06T19:02:02.704Z,100383.25
2023-05-06T19:04:47.738Z,100400.94
2023-05-06T19:07:36.225Z,100379.16
2023-05-06T19:10:20.580Z,100368.09
2023-05-06T19:13:07.841Z,100388.50
2023-05-06T19:15:52.007Z,100369.03
2023-05-06T19:18:36.216Z,100363.91
2023-05-06T19:21:20.211Z,100363.72
2023-05-06T19:24:07.782Z,100376.84
2023-05-06T19:26:54.983Z,100384.72
2023-05-06T19:29:42.148Z,100383.66
2023-05-06T19:32:29.117Z,100380.06
2023-05-06T19:35:13.455Z,100372.63
2023-05-06T19:37:59.400Z,100386.22
2023-05-06T19:40:53.634Z,100379.50
2023-05-06T19:43:42.334Z,100377.47
2023-05-06T19:46:26.592Z,100379.16
2023-05-06T19:49:11.050Z,100343.84
2023-05-06T19:51:55.250Z,100346.16
2023-05-06T19:54:39.567Z,100350.13
2023-05-06T19:57:31.692Z,100346.59
2023-05-06T20:00:18.624Z,100385.25
2023-05-06T20:03:03.079Z,100396.72
2023-05-06T20:05:47.211Z,100388.53
2023-05-06T20:08:31.303Z,100393.63
2023-05-06T20:11:17.791Z,100384.16
2023-05-06T20:14:03.416Z,100379.44
2023-05-06T20:16:47.653Z,100368.53
2023-05-06T20:19:31.812Z,100380.34
2023-05-06T20:22:18.650Z,100362.84
2023-05-06T20:25:11.774Z,100398.69
2023-05-06T20:27:56.515Z,100396.72
2023-05-06T20:30:44.817Z,100391.28
2023-05-06T20:33:31.226Z,100386.09
2023-05-06T20:36:16.190Z,100396.41
2023-05-06T20:39:00.853Z,100400.34
2023-05-06T20:41:44.965Z,100388.69
2023-05-06T20:44:31.709Z,100399.53
2023-05-06T20:47:17.316Z,100373.09
2023-05-06T20:50:01.961Z,100395.84
2023-05-06T20:52:50.067Z,100396.84
2023-05-06T20:55:34.524Z,100386.56
2023-05-06T20:58:18.602Z,100399.69
2023-05-06T21:01:07.266Z,100393.50
2023-05-06T21:03:52.764Z,100402.56
2023-05-06T21:06:36.777Z,100398.16
2023-05-06T21:09:26.542Z,100406.84
2023-05-06T21:12:10.811Z,100408.66
2023-05-06T21:14:54.942Z,100392.03
2023-05-06T21:17:39.146Z,100299.91
2023-05-06T21:20:27.036Z,100397.19
2023-05-06T21:23:11.249Z,100400.84
2023-05-06T21:25:55.330Z,100392.44
2023-05-06T21:28:39.430Z,100397.78
2023-05-06T21:31:25.476Z,100369.19
2023-05-06T21:34:14.432Z,100403.91
2023-05-06T21:36:59.961Z,100402.19
2023-05-06T21:39:47.119Z,100401.25
2023-05-06T21:42:31.321Z,100393.06
2023-05-06T21:45:22.311Z,100398.09
2023-05-06T21:48:07.076Z,100409.00
2023-05-06T21:50:51.201Z,100403.16
2023-05-06T21:53:36.588Z,100413.44
2023-05-06T21:56:21.670Z,100404.19
2023-05-06T21:59:08.101Z,100423.19
2023-05-06T22:01:52.377Z,100411.78
2023-05-06T22:04:36.395Z,100402.59
2023-05-06T22:07:20.352Z,100423.94
2023-05-06T22:10:06.538Z,100421.19
2023-05-06T22:12:51.003Z,100429.53
2023-05-06T22:15:34.996Z,100419.88
2023-05-06T22:18:19.357Z,100419.97
2023-05-06T22:21:06.848Z,100422.03
2023-05-06T22:23:50.823Z,100423.69
2023-05-06T22:26:36.381Z,100399.69
2023-05-06T22:29:20.428Z,100412.59
2023-05-06T22:32:06.453Z,100405.19
2023-05-06T22:34:50.610Z,100410.19
2023-05-06T22:37:34.593Z,100409.13
2023-05-06T22:40:18.477Z,100402.28
2023-05-06T22:43:03.910Z,100406.66
2023-05-06T22:45:48.156Z,100403.50
2023-05-06T22:48:32.781Z,100398.00
2023-05-06T22:51:17.016Z,100397.44
2023-05-06T22:54:01.121Z,100386.31
2023-05-06T22:56:45.111Z,100396.22
2023-05-06T22:59:30.609Z,100379.38
2023-05-06T23:02:14.701Z,100389.38
2023-05-06T23:04:59.515Z,100389.03
2023-05-06T23:07:43.461Z,100377.75
2023-05-06T23:10:28.200Z,100384.25
2023-05-06T23:13:12.340Z,100387.97
2023-05-06T23:15:57.559Z,100371.91
2023-05-06T23:18:41.438Z,100379.78
2023-05-06T23:21:25.268Z,100377.81
2023-05-06T23:24:10.304Z,100366.38
2023-05-06T23:26:54.622Z,100374.81
2023-05-06T23:29:38.564Z,100366.25
2023-05-06T23:32:23.696Z,100325.28
2023-05-06T23:35:08.427Z,100365.09
2023-05-06T23:37:52.462Z,100363.19
2023-05-06T23:40:36.182Z,100342.72
2023-05-06T23:43:19.928Z,100362.16
2023-05-06T23:46:03.734Z,100360.97
2023-05-06T23:48:48.968Z,100352.50
2023-05-06T23:51:32.909Z,100349.88
2023-05-06T23:54:16.833Z,100356.38
2023-05-06T23:57:01.324Z,100346.97
2023-05-06T23:59:45.275Z,100349.19
